Time;durP1;ratioP1;P1;durP2;ratioP2;P2;SDS_P1;SDS_P2;PMS_P1;PMS_P2;Temp;Humidity;BMP_temperature;BMP_pressure;BME280_temperature;BME280_humidity;BME280_pressure;Samples;Min_cycle;Max_cycle;Signal;HPM_P1;HPM_P2
2022/02/21 00:02:06;;;;;;;11.20;7.30;;;7.40;97.50;;;;;;6177493;28;20474;-60
2022/02/21 00:05:10;;;;;;;9.70;8.17;;;7.30;97.70;;;;;;6178152;28;21204;-60
2022/02/21 00:08:14;;;;;;;8.27;7.33;;;7.40;98.20;;;;;;6177668;28;20473;-59
2022/02/21 00:11:18;;;;;;;9.33;8.43;;;7.30;98.00;;;;;;6178645;28;20486;-61
2022/02/21 00:14:21;;;;;;;12.73;8.90;;;7.30;98.00;;;;;;6177983;28;20545;-61
2022/02/21 00:17:24;;;;;;;10.40;8.80;;;7.30;98.20;;;;;;6177966;28;20884;-62
2022/02/21 00:20:28;;;;;;;14.97;12.00;;;7.30;98.30;;;;;;6177658;28;20854;-60
2022/02/21 00:23:32;;;;;;;17.33;13.63;;;7.30;98.40;;;;;;6174372;28;20471;-64
2022/02/21 00:26:35;;;;;;;18.50;13.73;;;7.30;98.50;;;;;;6153032;28;20855;-62
2022/02/21 00:29:38;;;;;;;16.70;12.70;;;7.30;98.70;;;;;;6152752;28;20475;-61
2022/02/21 00:32:41;;;;;;;14.10;12.37;;;7.40;98.70;;;;;;6197308;28;20845;-60
2022/02/21 00:35:44;;;;;;;13.00;10.90;;;7.40;98.80;;;;;;6195715;28;20821;-59
2022/02/21 00:38:49;;;;;;;12.40;9.57;;;7.40;98.60;;;;;;6200153;28;20477;-60
2022/02/21 00:41:52;;;;;;;9.17;8.27;;;7.50;98.60;;;;;;6188449;28;20472;-60
2022/02/21 00:44:57;;;;;;;10.67;9.57;;;7.50;98.60;;;;;;6174982;28;20466;-60
2022/02/21 00:48:00;;;;;;;11.23;9.30;;;7.60;98.40;;;;;;6174926;28;20490;-59
2022/02/21 00:51:04;;;;;;;12.07;8.77;;;7.60;98.40;;;;;;6175721;28;20470;-61
2022/02/21 00:54:08;;;;;;;9.23;8.40;;;7.60;98.30;;;;;;6175965;28;20483;-61
2022/02/21 00:57:11;;;;;;;9.80;8.03;;;7.50;98.20;;;;;;6176263;28;20549;-61
2022/02/21 01:00:15;;;;;;;10.53;8.33;;;7.60;98.20;;;;;;6176070;28;20475;-61
2022/02/21 01:03:18;;;;;;;9.57;8.60;;;7.60;98.00;;;;;;6175900;28;20475;-61
2022/02/21 01:06:21;;;;;;;9.47;8.40;;;7.60;97.90;;;;;;6175834;28;20558;-61
2022/02/21 01:09:26;;;;;;;8.50;7.70;;;7.60;98.00;;;;;;6176025;28;20479;-61
2022/02/21 01:12:29;;;;;;;10.13;8.23;;;7.50;97.90;;;;;;6175804;28;21018;-61
2022/02/21 01:15:32;;;;;;;7.80;7.00;;;7.50;97.90;;;;;;6175659;28;20486;-63
2022/02/21 01:18:35;;;;;;;7.83;7.07;;;7.50;98.00;;;;;;6175505;28;20943;-63
2022/02/21 01:21:39;;;;;;;8.43;7.63;;;7.50;98.10;;;;;;6175915;28;20471;-63
2022/02/21 01:24:43;;;;;;;10.00;7.93;;;7.50;98.10;;;;;;6175538;28;20976;-64
2022/02/21 01:27:46;;;;;;;9.40;7.67;;;7.50;98.20;;;;;;6137662;28;1108440;-64
2022/02/21 01:30:49;;;;;;;9.83;8.07;;;7.40;98.10;;;;;;6176638;28;20247;-64
2022/02/21 01:33:52;;;;;;;11.73;8.40;;;7.50;98.20;;;;;;6176095;28;20813;-63
2022/02/21 01:36:55;;;;;;;8.37;7.53;;;7.40;98.20;;;;;;6176476;28;20491;-63
2022/02/21 01:40:00;;;;;;;8.00;7.20;;;7.40;98.30;;;;;;6176399;28;20478;-64
2022/02/21 01:43:03;;;;;;;8.67;7.80;;;7.40;98.30;;;;;;6166534;28;20488;-62
2022/02/21 01:46:06;;;;;;;9.57;8.57;;;7.40;98.30;;;;;;6176055;28;20965;-62
2022/02/21 01:49:11;;;;;;;9.57;8.30;;;7.40;98.40;;;;;;6175267;28;20482;-60
2022/02/21 01:52:16;;;;;;;9.70;8.70;;;7.40;98.30;;;;;;6159142;29;20494;-65
2022/02/21 01:55:21;;;;;;;7.97;7.17;;;7.30;98.30;;;;;;6161759;29;21235;-65
2022/02/21 01:58:24;;;;;;;8.00;7.30;;;7.20;98.50;;;;;;6160683;29;20481;-65
2022/02/21 02:01:27;;;;;;;8.47;7.67;;;7.30;98.60;;;;;;6157016;29;20844;-64
2022/02/21 02:04:31;;;;;;;9.60;8.10;;;7.20;98.70;;;;;;6156886;29;20485;-61
2022/02/21 02:07:35;;;;;;;9.70;8.13;;;7.20;98.70;;;;;;6156386;29;20490;-61
2022/02/21 02:10:40;;;;;;;7.80;6.97;;;7.20;98.80;;;;;;6156668;29;20479;-61
2022/02/21 02:13:43;;;;;;;9.90;7.50;;;7.20;98.70;;;;;;6177959;28;20462;-61
2022/02/21 02:16:46;;;;;;;9.20;7.80;;;7.20;98.70;;;;;;6180515;28;20532;-61
2022/02/21 02:19:49;;;;;;;7.73;7.10;;;7.20;98.80;;;;;;6180363;28;20481;-61
2022/02/21 02:22:54;;;;;;;8.00;7.30;;;7.10;98.70;;;;;;6180586;28;20474;-61
2022/02/21 02:25:57;;;;;;;9.80;8.10;;;7.20;98.90;;;;;;6179973;28;20945;-62
2022/02/21 02:29:00;;;;;;;9.37;7.30;;;7.20;98.80;;;;;;6180278;28;20482;-61
2022/02/21 02:32:05;;;;;;;12.13;8.80;;;7.10;98.80;;;;;;6179653;28;20482;-61
2022/02/21 02:35:08;;;;;;;8.57;7.80;;;7.10;98.90;;;;;;6180131;28;20454;-60
2022/02/21 02:38:13;;;;;;;7.97;6.93;;;7.20;99.00;;;;;;6180011;28;20477;-62
2022/02/21 02:41:16;;;;;;;8.27;7.20;;;7.20;99.00;;;;;;6180955;28;20462;-61
2022/02/21 02:44:19;;;;;;;8.80;7.33;;;7.20;99.00;;;;;;6175629;28;20447;-62
2022/02/21 02:47:22;;;;;;;9.53;7.80;;;7.10;98.90;;;;;;6179677;28;20512;-62
2022/02/21 02:50:25;;;;;;;8.17;7.40;;;7.20;99.00;;;;;;6179902;28;20893;-62
2022/02/21 02:53:31;;;;;;;10.77;7.63;;;7.00;98.90;;;;;;6179808;28;20465;-61
2022/02/21 02:56:34;;;;;;;8.23;7.40;;;7.10;99.20;;;;;;6179600;28;20486;-61
2022/02/21 02:59:37;;;;;;;12.87;7.40;;;7.10;99.30;;;;;;6179252;28;20470;-60
2022/02/21 03:02:40;;;;;;;8.13;7.33;;;7.00;99.40;;;;;;6179847;28;20478;-60
2022/02/21 03:05:43;;;;;;;8.13;7.33;;;7.10;99.50;;;;;;6179203;28;20473;-60
2022/02/21 03:08:48;;;;;;;8.10;7.30;;;7.00;99.40;;;;;;6179093;28;20481;-60
2022/02/21 03:11:51;;;;;;;10.70;9.47;;;7.00;99.40;;;;;;6179193;28;20489;-60
2022/02/21 03:14:54;;;;;;;8.53;7.77;;;7.00;99.50;;;;;;6179541;28;20481;-60
2022/02/21 03:18:01;;;;;;;10.30;8.30;;;7.00;99.50;;;;;;6179355;28;20493;-61
2022/02/21 03:21:04;;;;;;;11.47;8.37;;;7.00;99.50;;;;;;6179357;28;20474;-60
2022/02/21 03:24:09;;;;;;;8.20;7.30;;;7.00;99.50;;;;;;6178363;28;20481;-61
2022/02/21 03:27:12;;;;;;;8.27;7.43;;;7.00;99.40;;;;;;6178358;28;20478;-61
2022/02/21 03:30:15;;;;;;;9.07;8.17;;;6.90;99.50;;;;;;6178628;28;20865;-63
2022/02/21 03:33:18;;;;;;;8.30;7.50;;;7.00;99.60;;;;;;6178847;28;20470;-63
2022/02/21 03:36:22;;;;;;;9.10;7.77;;;6.90;99.50;;;;;;6178662;28;20863;-62
2022/02/21 03:39:26;;;;;;;8.07;7.10;;;6.90;99.50;;;;;;6181356;28;20537;-63
2022/02/21 03:42:29;;;;;;;11.80;8.47;;;7.00;99.60;;;;;;6182796;28;20485;-63
2022/02/21 03:45:33;;;;;;;8.93;7.03;;;6.90;99.50;;;;;;6180934;28;20482;-64
2022/02/21 03:48:36;;;;;;;7.57;6.87;;;6.90;99.60;;;;;;6181411;28;20493;-63
2022/02/21 03:51:39;;;;;;;7.83;7.13;;;6.90;99.70;;;;;;6175682;28;20769;-64
2022/02/21 03:54:43;;;;;;;7.97;7.17;;;6.90;99.70;;;;;;6180781;28;20540;-64
2022/02/21 03:57:46;;;;;;;8.90;8.00;;;6.80;99.80;;;;;;6180801;28;20549;-64
2022/02/21 04:00:50;;;;;;;7.13;6.40;;;6.80;99.80;;;;;;6181011;28;20481;-64
2022/02/21 04:03:53;;;;;;;7.57;6.93;;;6.90;99.90;;;;;;6181055;28;20973;-64
2022/02/21 04:06:56;;;;;;;8.63;7.20;;;6.80;99.80;;;;;;6178089;28;20478;-61
2022/02/21 04:10:01;;;;;;;8.30;7.60;;;6.80;99.90;;;;;;6177683;28;20470;-61
2022/02/21 04:13:04;;;;;;;9.40;7.57;;;6.80;99.90;;;;;;6177132;28;20494;-62
2022/02/21 04:16:07;;;;;;;9.80;8.23;;;6.80;99.90;;;;;;6177821;28;20473;-63
2022/02/21 04:19:10;;;;;;;11.67;10.50;;;6.80;99.90;;;;;;6177750;28;20493;-63
2022/02/21 04:22:14;;;;;;;10.70;9.23;;;6.80;99.90;;;;;;6177914;28;20470;-63
2022/02/21 04:25:18;;;;;;;8.07;7.37;;;6.70;99.90;;;;;;6177781;28;20558;-63
2022/02/21 04:28:22;;;;;;;9.10;7.00;;;6.80;99.90;;;;;;6177146;28;20818;-64
2022/02/21 04:31:25;;;;;;;9.53;6.80;;;6.80;99.90;;;;;;6177426;28;20481;-65
2022/02/21 04:34:28;;;;;;;10.93;8.77;;;6.80;99.90;;;;;;6177535;28;20543;-64
2022/02/21 04:37:31;;;;;;;8.67;7.77;;;6.80;99.90;;;;;;6177214;28;20478;-63
2022/02/21 04:40:35;;;;;;;8.63;7.83;;;6.70;99.90;;;;;;6177640;28;20492;-64
2022/02/21 04:43:39;;;;;;;11.27;8.13;;;6.80;99.90;;;;;;6177102;28;20541;-64
2022/02/21 04:46:42;;;;;;;8.10;7.40;;;6.70;99.90;;;;;;6179891;28;20565;-63
2022/02/21 04:49:45;;;;;;;8.90;7.70;;;6.80;99.90;;;;;;6182401;28;20985;-64
2022/02/21 04:52:48;;;;;;;8.63;7.80;;;6.80;99.90;;;;;;6181405;28;20489;-64
2022/02/21 04:55:52;;;;;;;8.30;7.60;;;6.90;99.90;;;;;;6176499;28;20832;-64
2022/02/21 04:58:56;;;;;;;10.87;8.77;;;6.80;99.90;;;;;;6177076;28;20482;-63
2022/02/21 05:02:00;;;;;;;9.03;7.53;;;6.80;99.90;;;;;;6178502;28;21003;-64
2022/02/21 05:05:03;;;;;;;9.40;8.50;;;6.70;99.90;;;;;;6179329;28;20482;-64
2022/02/21 05:08:06;;;;;;;13.80;8.50;;;6.70;99.90;;;;;;6178373;28;20536;-63
2022/02/21 05:11:11;;;;;;;8.77;7.10;;;6.70;99.90;;;;;;6177505;28;20548;-62
2022/02/21 05:14:14;;;;;;;9.40;7.77;;;6.70;99.90;;;;;;6176536;28;20565;-62
2022/02/21 05:17:17;;;;;;;9.47;8.57;;;6.70;99.90;;;;;;6176669;28;20465;-62
2022/02/21 05:20:20;;;;;;;9.80;7.80;;;6.80;99.90;;;;;;6176975;28;20453;-62
2022/02/21 05:23:23;;;;;;;8.13;7.40;;;6.80;99.90;;;;;;6176469;28;20482;-62
2022/02/21 05:26:27;;;;;;;8.57;7.77;;;6.80;99.90;;;;;;6179136;28;20486;-61
2022/02/21 05:29:31;;;;;;;11.27;9.13;;;6.80;99.90;;;;;;6185676;28;20952;-64
2022/02/21 05:32:34;;;;;;;11.40;9.90;;;6.70;99.90;;;;;;6185434;28;20775;-64
2022/02/21 05:35:37;;;;;;;14.50;10.37;;;6.50;99.90;;;;;;6182573;28;20466;-61
2022/02/21 05:38:40;;;;;;;11.90;10.80;;;6.10;99.90;;;;;;6181757;28;20489;-61
2022/02/21 05:41:44;;;;;;;11.43;10.23;;;5.90;99.90;;;;;;6186521;28;20783;-64
2022/02/21 05:44:47;;;;;;;15.40;8.93;;;6.10;99.90;;;;;;6181998;28;20477;-63
2022/02/21 05:47:50;;;;;;;11.90;9.50;;;6.20;99.90;;;;;;6184631;28;20548;-63
2022/02/21 05:50:53;;;;;;;10.10;8.60;;;6.30;99.90;;;;;;6185608;28;20482;-64
2022/02/21 05:53:56;;;;;;;9.07;8.20;;;6.40;99.90;;;;;;6184791;28;20477;-64
2022/02/21 05:57:01;;;;;;;9.00;7.80;;;6.50;99.90;;;;;;6184295;28;20488;-64
2022/02/21 06:00:07;;;;;;;9.67;8.77;;;6.60;99.90;;;;;;6175416;28;20488;-64
2022/02/21 06:03:10;;;;;;;10.20;8.97;;;6.60;99.90;;;;;;6184978;28;20466;-64
2022/02/21 06:06:13;;;;;;;10.47;8.87;;;6.60;99.90;;;;;;6181436;28;20497;-63
2022/02/21 06:09:16;;;;;;;11.60;8.80;;;6.60;99.90;;;;;;6180928;28;20474;-63
2022/02/21 06:12:20;;;;;;;11.10;9.10;;;6.60;99.90;;;;;;6180357;28;21028;-63
2022/02/21 06:15:24;;;;;;;10.13;8.70;;;6.60;99.90;;;;;;6182043;28;20474;-64
2022/02/21 06:18:27;;;;;;;11.03;8.70;;;6.60;99.90;;;;;;6182035;28;20489;-64
2022/02/21 06:21:30;;;;;;;10.37;8.93;;;6.60;99.90;;;;;;6182619;28;20470;-64
2022/02/21 06:24:33;;;;;;;10.50;9.40;;;6.70;99.90;;;;;;6182841;28;20481;-64
2022/02/21 06:27:38;;;;;;;10.20;9.27;;;6.80;99.90;;;;;;6182345;28;20484;-64
2022/02/21 06:30:41;;;;;;;10.47;9.40;;;6.80;99.90;;;;;;6181674;28;20491;-64
2022/02/21 06:33:44;;;;;;;9.53;8.73;;;6.90;99.90;;;;;;6181706;28;20485;-64
2022/02/21 06:36:47;;;;;;;9.77;8.07;;;7.00;99.90;;;;;;6179818;28;20540;-64
2022/02/21 06:39:50;;;;;;;9.30;8.40;;;7.00;99.90;;;;;;6180934;28;20482;-64
2022/02/21 06:42:55;;;;;;;9.43;8.43;;;7.00;99.90;;;;;;6180944;28;20556;-64
2022/02/21 06:45:58;;;;;;;9.47;8.27;;;7.00;99.90;;;;;;6182049;28;20478;-63
2022/02/21 06:49:01;;;;;;;7.87;7.17;;;7.10;99.90;;;;;;6183043;28;20479;-63
2022/02/21 06:52:07;;;;;;;12.90;8.23;;;7.10;99.90;;;;;;6159259;28;20550;-63
2022/02/21 06:55:12;;;;;;;9.30;6.90;;;7.10;99.90;;;;;;6158918;28;20524;-64
2022/02/21 06:58:17;;;;;;;13.50;8.20;;;7.10;99.90;;;;;;6157800;28;20490;-64
2022/02/21 07:01:20;;;;;;;9.70;7.60;;;7.10;99.90;;;;;;6158339;28;20471;-64
2022/02/21 07:04:24;;;;;;;8.37;7.47;;;7.10;99.90;;;;;;6148484;28;20855;-64
2022/02/21 07:07:27;;;;;;;9.67;8.20;;;7.10;99.90;;;;;;6157859;28;20479;-63
2022/02/21 07:10:30;;;;;;;9.77;8.73;;;7.10;99.90;;;;;;6157616;28;20482;-64
2022/02/21 07:13:35;;;;;;;9.70;8.43;;;7.10;99.90;;;;;;6178033;28;20482;-64
2022/02/21 07:16:38;;;;;;;8.80;7.07;;;7.20;99.90;;;;;;6181704;28;20489;-63
2022/02/21 07:19:41;;;;;;;8.87;8.07;;;7.20;99.90;;;;;;6180754;28;20480;-64
2022/02/21 07:22:46;;;;;;;9.30;8.40;;;7.20;99.90;;;;;;6180545;28;20475;-64
2022/02/21 07:25:49;;;;;;;9.20;8.30;;;7.30;99.90;;;;;;6180495;28;20990;-64
2022/02/21 07:28:54;;;;;;;10.00;8.77;;;7.30;99.90;;;;;;6180211;28;20514;-63
2022/02/21 07:31:59;;;;;;;9.00;8.20;;;7.30;99.90;;;;;;6180468;28;20474;-64
2022/02/21 07:35:02;;;;;;;10.27;8.50;;;7.30;99.90;;;;;;6180175;28;20559;-63
2022/02/21 07:38:05;;;;;;;11.10;9.90;;;7.40;99.90;;;;;;6180115;28;20606;-63
2022/02/21 07:41:08;;;;;;;13.90;11.20;;;7.40;99.90;;;;;;6181032;28;20482;-63
2022/02/21 07:44:13;;;;;;;9.07;8.17;;;7.40;99.90;;;;;;6180320;28;20451;-62
2022/02/21 07:47:16;;;;;;;10.93;9.40;;;7.40;99.90;;;;;;6178713;28;20466;-63
2022/02/21 07:50:20;;;;;;;10.87;8.70;;;7.50;99.90;;;;;;6178110;28;20788;-63
2022/02/21 07:53:23;;;;;;;12.43;8.63;;;7.50;99.90;;;;;;6178627;28;20756;-64
2022/02/21 07:56:27;;;;;;;9.70;8.70;;;7.60;99.90;;;;;;6178784;28;20466;-63
2022/02/21 07:59:31;;;;;;;8.20;7.40;;;7.70;99.90;;;;;;6178415;28;20453;-63
2022/02/21 08:02:34;;;;;;;9.63;7.97;;;7.70;99.90;;;;;;6179358;28;20458;-63
2022/02/21 08:05:38;;;;;;;10.23;7.40;;;7.70;99.70;;;;;;6174979;28;20471;-63
2022/02/21 08:08:47;;;;;;;11.17;7.60;;;7.60;99.90;;;;;;6180429;28;20788;-65
2022/02/21 08:11:50;;;;;;;11.00;7.83;;;7.70;99.90;;;;;;6179797;28;20954;-63
2022/02/21 08:14:55;;;;;;;10.07;7.30;;;7.70;99.80;;;;;;6178045;28;20481;-64
2022/02/21 08:18:00;;;;;;;7.10;6.40;;;7.70;99.90;;;;;;6179372;28;20977;-63
2022/02/21 08:21:03;;;;;;;9.23;7.97;;;7.70;99.50;;;;;;6179011;28;20489;-64
2022/02/21 08:24:07;;;;;;;9.87;7.10;;;7.80;99.50;;;;;;6179737;28;20473;-63
2022/02/21 08:27:11;;;;;;;7.97;7.17;;;7.90;99.30;;;;;;6179883;28;20830;-63
2022/02/21 08:30:18;;;;;;;9.00;7.17;;;7.90;99.10;;;;;;6179574;28;20486;-63
2022/02/21 08:33:21;;;;;;;8.87;7.20;;;8.00;98.90;;;;;;6178648;28;20477;-63
2022/02/21 08:36:24;;;;;;;5.93;5.43;;;8.00;98.60;;;;;;6178964;28;20480;-62
2022/02/21 08:39:27;;;;;;;10.23;7.17;;;8.10;98.50;;;;;;6179764;28;20475;-63
2022/02/21 08:42:30;;;;;;;9.50;7.67;;;8.00;98.10;;;;;;6179581;28;20475;-64
2022/02/21 08:45:35;;;;;;;7.93;7.13;;;8.10;98.30;;;;;;6180327;28;20479;-63
2022/02/21 08:48:38;;;;;;;7.87;6.43;;;8.10;98.40;;;;;;6179379;28;20489;-63
2022/02/21 08:51:41;;;;;;;12.17;8.13;;;8.20;98.30;;;;;;6158605;28;20975;-64
2022/02/21 08:54:44;;;;;;;11.77;8.20;;;8.30;98.10;;;;;;6155685;29;20973;-64
2022/02/21 08:57:47;;;;;;;8.93;7.47;;;8.20;98.30;;;;;;6154020;29;20480;-63
2022/02/21 09:00:52;;;;;;;9.20;8.20;;;8.30;98.40;;;;;;6153945;28;20468;-63
2022/02/21 09:03:55;;;;;;;11.87;10.00;;;8.30;98.60;;;;;;6153901;29;20472;-64
2022/02/21 09:06:58;;;;;;;11.17;10.17;;;8.20;98.90;;;;;;6153636;29;20488;-64
2022/02/21 09:10:01;;;;;;;11.13;9.40;;;8.20;99.00;;;;;;6154355;29;20472;-64
2022/02/21 09:13:05;;;;;;;10.20;8.70;;;8.20;99.10;;;;;;6155942;28;20491;-64
2022/02/21 09:16:09;;;;;;;11.77;9.07;;;8.30;99.30;;;;;;6177689;28;20482;-64
2022/02/21 09:19:12;;;;;;;11.83;9.93;;;8.20;99.10;;;;;;6178846;28;20545;-64
2022/02/21 09:22:15;;;;;;;15.33;12.17;;;8.00;99.50;;;;;;6178732;28;20510;-62
2022/02/21 09:25:18;;;;;;;16.67;11.47;;;7.50;99.90;;;;;;6179548;28;20470;-63
2022/02/21 09:28:21;;;;;;;15.13;11.13;;;7.40;99.90;;;;;;6178954;28;20478;-63
2022/02/21 09:31:26;;;;;;;16.20;11.53;;;7.30;99.90;;;;;;6178682;28;20478;-63
2022/02/21 09:34:29;;;;;;;14.00;11.40;;;7.30;99.90;;;;;;6178643;28;20482;-63
2022/02/21 09:37:32;;;;;;;12.63;10.80;;;7.60;99.90;;;;;;6178289;28;20476;-63
2022/02/21 09:40:35;;;;;;;14.37;9.67;;;7.70;99.90;;;;;;6178268;28;20483;-63
2022/02/21 09:43:39;;;;;;;17.43;10.50;;;7.70;99.50;;;;;;6177263;28;20808;-63
2022/02/21 09:46:46;;;;;;;15.93;11.60;;;7.80;99.50;;;;;;6176561;28;20470;-65
2022/02/21 09:49:51;;;;;;;12.50;11.23;;;8.20;99.40;;;;;;6175239;28;20493;-61
2022/02/21 09:53:00;;;;;;;14.60;10.50;;;8.40;99.10;;;;;;6175994;28;20983;-62
2022/02/21 09:56:04;;;;;;;19.03;10.77;;;8.70;98.60;;;;;;6176656;28;20484;-62
2022/02/21 09:59:11;;;;;;;11.57;9.77;;;8.90;97.90;;;;;;6177156;28;21100;-62
2022/02/21 10:02:23;;;;;;;13.20;9.93;;;9.40;97.50;;;;;;6177414;28;21039;-61
2022/02/21 10:05:26;;;;;;;15.63;10.90;;;10.00;95.70;;;;;;6176425;28;20721;-63
2022/02/21 10:08:32;;;;;;;13.23;11.00;;;10.30;94.40;;;;;;6176561;28;20471;-62
2022/02/21 10:11:58;;;;;;;16.03;11.53;;;10.60;93.80;;;;;;6177851;28;21046;-63
2022/02/21 10:15:13;;;;;;;10.73;9.53;;;11.00;93.00;;;;;;6172360;28;20506;-62
2022/02/21 10:18:19;;;;;;;12.57;9.20;;;11.30;91.90;;;;;;6180669;28;20515;-62
2022/02/21 10:21:22;;;;;;;14.23;10.50;;;11.60;91.00;;;;;;6181010;28;20487;-63
2022/02/21 10:24:26;;;;;;;15.00;10.53;;;11.60;90.50;;;;;;6169990;28;20488;-62
2022/02/21 10:27:30;;;;;;;17.97;10.57;;;11.70;90.20;;;;;;6156557;28;20481;-63
2022/02/21 10:30:33;;;;;;;13.10;9.53;;;11.60;90.00;;;;;;6162328;28;20511;-61
2022/02/21 10:34:01;;;;;;;12.33;8.10;;;11.60;90.00;;;;;;6181600;28;20485;-61
2022/02/21 10:37:06;;;;;;;13.43;9.10;;;11.60;90.00;;;;;;6182048;28;20473;-61
2022/02/21 10:40:11;;;;;;;10.93;7.70;;;12.40;90.00;;;;;;6182303;28;20973;-62
2022/02/21 10:43:17;;;;;;;13.13;7.67;;;14.60;84.60;;;;;;6181053;28;20474;-63
2022/02/21 10:46:20;;;;;;;9.43;7.03;;;16.70;72.60;;;;;;6184719;28;20551;-64
2022/02/21 10:49:25;;;;;;;11.53;8.73;;;17.10;64.00;;;;;;6184288;28;20516;-64
2022/02/21 10:52:29;;;;;;;9.50;7.50;;;17.70;63.10;;;;;;6181621;28;20946;-64
2022/02/21 10:55:34;;;;;;;13.67;7.70;;;18.60;57.00;;;;;;6182226;28;21016;-64
2022/02/21 10:58:37;;;;;;;9.80;7.23;;;18.10;55.00;;;;;;6181265;28;20966;-65
2022/02/21 11:01:40;;;;;;;13.37;6.90;;;17.90;56.50;;;;;;6181716;28;20473;-64
2022/02/21 11:04:45;;;;;;;13.03;6.53;;;21.60;51.50;;;;;;6180592;28;20563;-62
2022/02/21 11:07:49;;;;;;;11.33;6.90;;;22.30;44.40;;;;;;6180395;28;20242;-64
2022/02/21 11:10:59;;;;;;;5.07;4.30;;;21.30;43.30;;;;;;6179327;28;20701;-63
2022/02/21 11:14:02;;;;;;;7.50;2.20;;;19.50;42.70;;;;;;6171392;28;20228;-65
2022/02/21 11:17:09;;;;;;;3.50;1.07;;;17.90;43.00;;;;;;6154967;28;20243;-64
2022/02/21 11:20:13;;;;;;;2.27;1.00;;;16.50;42.50;;;;;;6150163;28;21035;-64
2022/02/21 11:23:16;;;;;;;2.03;0.70;;;15.40;44.20;;;;;;6155757;28;20451;-65
2022/02/21 11:26:26;;;;;;;0.60;0.60;;;14.30;43.40;;;;;;6179534;28;20793;-64
2022/02/21 11:29:36;;;;;;;3.57;0.77;;;13.60;44.90;;;;;;6182048;28;20870;-64
2022/02/21 11:32:41;;;;;;;0.97;0.60;;;13.10;46.10;;;;;;6178856;28;20466;-64
2022/02/21 11:36:04;;;;;;;0.70;0.53;;;12.40;46.50;;;;;;6178614;28;20473;-64
2022/02/21 11:39:22;;;;;;;1.07;0.50;;;11.70;47.00;;;;;;6178392;28;20465;-63
2022/02/21 11:42:41;;;;;;;1.30;0.50;;;11.50;47.00;;;;;;6178024;28;20991;-64
2022/02/21 11:45:44;;;;;;;1.03;0.43;;;11.20;47.50;;;;;;6179321;28;20471;-65
2022/02/21 11:49:07;;;;;;;0.60;0.50;;;11.10;47.40;;;;;;6178205;28;20485;-65
2022/02/21 11:52:30;;;;;;;0.83;0.60;;;11.10;47.40;;;;;;6154351;28;20492;-65
2022/02/21 11:55:52;;;;;;;1.80;0.60;;;11.00;46.70;;;;;;6155219;28;20505;-63
2022/02/21 11:58:55;;;;;;;0.40;0.33;;;10.80;46.50;;;;;;6177657;28;20477;-65
2022/02/21 12:02:02;;;;;;;1.43;0.70;;;10.70;47.30;;;;;;6177651;28;20477;-65
2022/02/21 12:05:20;;;;;;;0.80;0.50;;;10.60;48.00;;;;;;6192185;28;20493;-65
2022/02/21 12:08:45;;;;;;;0.70;0.70;;;10.60;47.60;;;;;;6197238;28;20503;-65
2022/02/21 12:11:48;;;;;;;0.53;0.53;;;10.40;47.70;;;;;;6193402;28;20484;-65
2022/02/21 12:15:10;;;;;;;2.63;0.83;;;10.30;48.20;;;;;;6180427;28;20484;-63
2022/02/21 12:18:45;;;;;;;1.20;0.70;;;10.30;48.70;;;;;;6177580;28;20477;-62
2022/02/21 12:22:13;;;;;;;2.20;0.70;;;10.20;49.00;;;;;;6173819;28;20489;-63
2022/02/21 12:25:19;;;;;;;0.70;0.70;;;10.20;49.50;;;;;;6180361;28;20473;-64
2022/02/21 12:28:24;;;;;;;0.60;0.60;;;10.20;49.60;;;;;;6178971;28;20481;-63
2022/02/21 12:31:27;;;;;;;0.50;0.40;;;10.20;49.60;;;;;;6179461;28;20536;-63
2022/02/21 12:34:33;;;;;;;0.80;0.60;;;10.10;49.70;;;;;;6177050;28;20478;-64
2022/02/21 12:37:37;;;;;;;0.77;0.60;;;10.10;49.00;;;;;;6177321;28;20480;-62
2022/02/21 12:40:54;;;;;;;1.30;0.50;;;10.00;49.20;;;;;;6177388;28;20481;-64
2022/02/21 12:44:00;;;;;;;0.50;0.43;;;9.90;49.50;;;;;;6176368;28;20489;-65
2022/02/21 12:47:05;;;;;;;8.30;1.10;;;10.00;48.50;;;;;;6175928;28;20490;-65
2022/02/21 12:50:09;;;;;;;0.70;0.70;;;9.90;49.10;;;;;;6167192;28;20956;-64
2022/02/21 12:53:12;;;;;;;1.23;0.73;;;9.80;48.00;;;;;;6151576;29;20602;-65
2022/02/21 12:56:16;;;;;;;2.10;0.63;;;9.80;47.50;;;;;;6152923;28;20485;-63
2022/02/21 12:59:22;;;;;;;0.70;0.70;;;9.70;47.00;;;;;;6177192;28;20460;-64
2022/02/21 13:02:25;;;;;;;0.80;0.80;;;9.70;45.10;;;;;;6179012;28;20453;-64
2022/02/21 13:05:28;;;;;;;0.90;0.77;;;9.60;44.10;;;;;;6178886;28;20453;-64
2022/02/21 13:08:39;;;;;;;4.93;1.00;;;9.60;44.30;;;;;;6180306;28;20900;-65
2022/02/21 13:11:44;;;;;;;1.50;0.80;;;9.60;42.90;;;;;;6179947;28;20485;-65
2022/02/21 13:15:03;;;;;;;1.73;0.60;;;9.70;42.60;;;;;;6180106;28;20473;-64
2022/02/21 13:18:06;;;;;;;0.73;0.70;;;9.80;41.80;;;;;;6177651;28;20488;-65
2022/02/21 13:21:11;;;;;;;1.10;0.80;;;9.80;41.40;;;;;;6177767;28;20501;-64
2022/02/21 13:24:17;;;;;;;0.50;0.50;;;9.90;40.70;;;;;;6177180;28;20494;-63
2022/02/21 13:27:23;;;;;;;1.13;0.60;;;10.00;39.50;;;;;;6177001;28;20485;-64
2022/02/21 13:30:31;;;;;;;1.20;0.77;;;10.00;39.60;;;;;;6177246;28;20551;-64
2022/02/21 13:33:40;;;;;;;1.80;0.77;;;10.00;38.20;;;;;;6177460;28;20523;-63
2022/02/21 13:36:44;;;;;;;0.60;0.60;;;10.00;38.60;;;;;;6177561;28;20810;-62
2022/02/21 13:39:52;;;;;;;0.97;0.87;;;10.00;37.30;;;;;;6177021;28;20482;-63
2022/02/21 13:43:02;;;;;;;1.60;0.70;;;10.10;37.70;;;;;;6176408;28;20495;-63
2022/02/21 13:46:05;;;;;;;1.33;0.70;;;10.10;38.00;;;;;;6176688;28;20482;-62
2022/02/21 13:49:08;;;;;;;1.13;0.77;;;10.10;37.20;;;;;;6180878;28;20481;-61
2022/02/21 13:52:11;;;;;;;1.13;0.80;;;10.10;37.00;;;;;;6180610;28;20960;-62
2022/02/21 13:55:24;;;;;;;1.10;0.57;;;10.10;37.00;;;;;;6180707;28;20481;-62
2022/02/21 13:58:32;;;;;;;0.70;0.70;;;10.10;36.80;;;;;;6200086;28;20473;-61
2022/02/21 14:01:41;;;;;;;1.93;0.70;;;10.10;36.50;;;;;;6205014;28;20484;-62
2022/02/21 14:04:45;;;;;;;1.00;0.70;;;10.20;36.50;;;;;;6181338;28;20477;-61
2022/02/21 14:07:51;;;;;;;0.80;0.80;;;10.30;36.60;;;;;;6180633;28;20488;-61
2022/02/21 14:10:58;;;;;;;3.60;0.83;;;10.30;36.00;;;;;;6180754;28;20976;-60
2022/02/21 14:14:09;;;;;;;1.23;0.90;;;10.40;35.50;;;;;;6156911;28;20798;-60
2022/02/21 14:17:13;;;;;;;1.20;0.67;;;10.50;35.40;;;;;;6166092;28;20486;-60
2022/02/21 14:20:16;;;;;;;2.80;1.00;;;10.50;33.90;;;;;;6180033;28;20478;-61
2022/02/21 14:23:33;;;;;;;1.87;0.77;;;10.40;34.30;;;;;;6180340;28;20440;-60
2022/02/21 14:26:36;;;;;;;1.47;0.70;;;10.50;33.90;;;;;;6180139;28;20492;-61
2022/02/21 14:29:40;;;;;;;1.00;0.80;;;10.40;33.90;;;;;;6175335;28;20482;-61
2022/02/21 14:32:43;;;;;;;0.97;0.70;;;10.30;34.20;;;;;;6179753;28;20477;-61
2022/02/21 14:36:08;;;;;;;1.43;0.53;;;10.30;34.90;;;;;;6179894;28;20563;-61
2022/02/21 14:39:11;;;;;;;0.80;0.80;;;10.30;34.30;;;;;;6179731;28;20479;-62
2022/02/21 14:42:14;;;;;;;0.70;0.70;;;10.20;33.60;;;;;;6179700;28;20492;-60
2022/02/21 14:45:19;;;;;;;1.50;1.30;;;10.20;33.90;;;;;;6179580;28;20479;-62
2022/02/21 14:48:22;;;;;;;1.20;1.10;;;10.30;33.70;;;;;;6179579;28;20481;-61
2022/02/21 14:51:45;;;;;;;1.43;0.87;;;10.20;33.20;;;;;;6179522;28;20484;-66
2022/02/21 14:54:49;;;;;;;1.20;1.10;;;10.20;33.70;;;;;;6179994;28;20488;-64
2022/02/21 14:57:54;;;;;;;0.80;0.80;;;10.10;33.80;;;;;;6178779;28;20505;-64
2022/02/21 15:00:59;;;;;;;0.70;0.60;;;10.10;33.60;;;;;;6179796;28;20994;-63
2022/02/21 15:04:03;;;;;;;1.23;0.97;;;10.10;33.30;;;;;;6179342;28;20507;-67
2022/02/21 15:07:07;;;;;;;2.50;1.10;;;10.00;32.90;;;;;;6179389;28;20484;-62
2022/02/21 15:10:10;;;;;;;2.00;0.83;;;9.90;33.70;;;;;;6179007;28;20474;-62
2022/02/21 15:13:14;;;;;;;3.33;0.87;;;10.00;33.10;;;;;;6179466;28;20508;-62
2022/02/21 15:16:18;;;;;;;2.00;0.93;;;10.00;33.00;;;;;;6178923;28;20496;-62
2022/02/21 15:19:21;;;;;;;1.00;0.70;;;9.90;33.20;;;;;;6179059;28;20964;-61
2022/02/21 15:22:25;;;;;;;1.60;0.70;;;10.00;32.60;;;;;;6179098;28;20477;-61
2022/02/21 15:25:28;;;;;;;0.80;0.80;;;10.00;32.30;;;;;;6179052;28;20481;-61
2022/02/21 15:28:31;;;;;;;0.97;0.90;;;10.00;32.30;;;;;;6179335;28;20540;-60
2022/02/21 15:31:36;;;;;;;1.73;0.60;;;10.00;32.30;;;;;;6178152;28;20485;-61
2022/02/21 15:34:40;;;;;;;2.10;1.13;;;10.00;32.20;;;;;;6178344;28;20977;-61
2022/02/21 15:37:43;;;;;;;1.50;1.20;;;10.00;32.50;;;;;;6178151;28;20498;-61
2022/02/21 15:40:46;;;;;;;2.80;1.30;;;10.00;33.50;;;;;;6178147;28;20480;-61
2022/02/21 15:43:50;;;;;;;1.07;1.00;;;10.00;33.20;;;;;;6177646;28;20473;-61
2022/02/21 15:46:54;;;;;;;0.97;0.90;;;10.10;33.20;;;;;;6177829;28;20496;-61
2022/02/21 15:49:57;;;;;;;1.23;1.13;;;10.10;32.80;;;;;;6177283;28;21000;-62
2022/02/21 15:53:00;;;;;;;3.00;1.10;;;10.10;32.50;;;;;;6178052;28;20480;-61
2022/02/21 15:56:06;;;;;;;0.80;0.80;;;10.00;32.80;;;;;;6177821;28;20808;-61
2022/02/21 15:59:11;;;;;;;2.93;0.97;;;10.10;32.20;;;;;;6153851;28;20581;-61
2022/02/21 16:02:16;;;;;;;1.00;0.90;;;10.00;32.30;;;;;;6175397;28;20464;-61
2022/02/21 16:05:19;;;;;;;1.80;0.70;;;10.00;32.90;;;;;;6163364;28;20462;-61
2022/02/21 16:08:22;;;;;;;1.27;0.90;;;9.80;33.60;;;;;;6169862;28;20473;-61